sensor_id;sensor_type;location;lat;lon;timestamp;pressure;altitude;pressure_sealevel;temperature;humidity
22649;BME280;11491;41.942;24.220;2023-05-09T00:00:45;90118.41;;;10.41;100.00
22649;BME280;11491;41.942;24.220;2023-05-09T00:03:12;90123.31;;;10.51;100.00
22649;BME280;11491;41.942;24.220;2023-05-09T00:05:39;90076.97;;;10.23;100.00
22649;BME280;11491;41.942;24.220;2023-05-09T00:08:06;90072.53;;;10.39;100.00
22649;BME280;11491;41.942;24.220;2023-05-09T00:10:33;90133.22;;;10.91;100.00
22649;BME280;11491;41.942;24.220;2023-05-09T00:13:00;90062.25;;;10.53;100.00
22649;BME280;11491;41.942;24.220;2023-05-09T00:15:28;90129.19;;;10.97;100.00
22649;BME280;11491;41.942;24.220;2023-05-09T00:17:54;90130.50;;;11.04;100.00
22649;BME280;11491;41.942;24.220;2023-05-09T00:20:21;90132.00;;;11.17;100.00
22649;BME280;11491;41.942;24.220;2023-05-09T00:22:48;90129.09;;;11.22;100.00
22649;BME280;11491;41.942;24.220;2023-05-09T00:25:15;90122.47;;;11.32;100.00
22649;BME280;11491;41.942;24.220;2023-05-09T00:27:41;90112.47;;;11.29;100.00
22649;BME280;11491;41.942;24.220;2023-05-09T00:30:08;90093.19;;;11.23;100.00
22649;BME280;11491;41.942;24.220;2023-05-09T00:32:37;90121.38;;;11.49;100.00
22649;BME280;11491;41.942;24.220;2023-05-09T00:35:05;90117.69;;;11.53;99.98
22649;BME280;11491;41.942;24.220;2023-05-09T00:37:32;90121.56;;;11.56;98.77
22649;BME280;11491;41.942;24.220;2023-05-09T00:39:59;90120.19;;;11.62;98.55
22649;BME280;11491;41.942;24.220;2023-05-09T00:42:26;90104.25;;;11.37;97.67
22649;BME280;11491;41.942;24.220;2023-05-09T00:44:52;90122.09;;;11.46;97.75
22649;BME280;11491;41.942;24.220;2023-05-09T00:47:21;90113.41;;;11.36;98.69
22649;BME280;11491;41.942;24.220;2023-05-09T00:49:49;90122.03;;;11.02;99.67
22649;BME280;11491;41.942;24.220;2023-05-09T00:52:16;90129.19;;;10.97;99.80
22649;BME280;11491;41.942;24.220;2023-05-09T00:54:47;90125.66;;;10.93;99.77
22649;BME280;11491;41.942;24.220;2023-05-09T00:57:14;90122.78;;;10.86;99.95
22649;BME280;11491;41.942;24.220;2023-05-09T00:59:41;90124.78;;;10.77;100.00
22649;BME280;11491;41.942;24.220;2023-05-09T01:02:07;90127.94;;;10.67;100.00
22649;BME280;11491;41.942;24.220;2023-05-09T01:04:34;90124.16;;;10.55;100.00
22649;BME280;11491;41.942;24.220;2023-05-09T01:07:07;90125.63;;;10.53;100.00
22649;BME280;11491;41.942;24.220;2023-05-09T01:09:40;90127.28;;;10.57;100.00
22649;BME280;11491;41.942;24.220;2023-05-09T01:12:13;90130.41;;;10.60;100.00
22649;BME280;11491;41.942;24.220;2023-05-09T01:14:47;90126.81;;;10.68;100.00
22649;BME280;11491;41.942;24.220;2023-05-09T01:17:23;90131.59;;;10.74;100.00
22649;BME280;11491;41.942;24.220;2023-05-09T01:20:03;90126.16;;;10.71;100.00
22649;BME280;11491;41.942;24.220;2023-05-09T01:22:40;90126.34;;;10.78;100.00
22649;BME280;11491;41.942;24.220;2023-05-09T01:25:25;90125.72;;;10.69;100.00
22649;BME280;11491;41.942;24.220;2023-05-09T01:28:09;90123.75;;;10.53;100.00
22649;BME280;11491;41.942;24.220;2023-05-09T01:30:41;90091.00;;;10.44;100.00
22649;BME280;11491;41.942;24.220;2023-05-09T01:33:12;90124.84;;;10.52;100.00
22649;BME280;11491;41.942;24.220;2023-05-09T01:35:43;90121.72;;;10.63;100.00
22649;BME280;11491;41.942;24.220;2023-05-09T01:38:16;90126.75;;;10.52;100.00
22649;BME280;11491;41.942;24.220;2023-05-09T01:40:44;90125.53;;;10.49;100.00
22649;BME280;11491;41.942;24.220;2023-05-09T01:43:15;90119.28;;;10.45;100.00
22649;BME280;11491;41.942;24.220;2023-05-09T01:45:45;90122.88;;;10.37;100.00
22649;BME280;11491;41.942;24.220;2023-05-09T01:48:13;90124.63;;;10.45;100.00
22649;BME280;11491;41.942;24.220;2023-05-09T01:50:42;90122.19;;;10.40;100.00
22649;BME280;11491;41.942;24.220;2023-05-09T01:53:10;90109.94;;;10.14;100.00
22649;BME280;11491;41.942;24.220;2023-05-09T01:55:39;90102.84;;;9.94;100.00
22649;BME280;11491;41.942;24.220;2023-05-09T01:58:07;90128.66;;;10.14;100.00
22649;BME280;11491;41.942;24.220;2023-05-09T02:00:35;90119.88;;;10.14;100.00
22649;BME280;11491;41.942;24.220;2023-05-09T02:03:03;90129.19;;;10.08;100.00
22649;BME280;11491;41.942;24.220;2023-05-09T02:05:31;90121.53;;;9.94;100.00
22649;BME280;11491;41.942;24.220;2023-05-09T02:08:00;90136.88;;;9.97;100.00
22649;BME280;11491;41.942;24.220;2023-05-09T02:10:27;90133.75;;;9.95;100.00
22649;BME280;11491;41.942;24.220;2023-05-09T02:12:55;90136.66;;;9.90;100.00
22649;BME280;11491;41.942;24.220;2023-05-09T02:15:22;90144.22;;;10.00;100.00
22649;BME280;11491;41.942;24.220;2023-05-09T02:17:50;90146.44;;;10.10;100.00
22649;BME280;11491;41.942;24.220;2023-05-09T02:20:18;90133.75;;;9.95;100.00
22649;BME280;11491;41.942;24.220;2023-05-09T02:22:45;90150.00;;;9.78;100.00
22649;BME280;11491;41.942;24.220;2023-05-09T02:25:12;90143.53;;;9.66;100.00
22649;BME280;11491;41.942;24.220;2023-05-09T02:27:42;90131.97;;;9.62;100.00
22649;BME280;11491;41.942;24.220;2023-05-09T02:30:13;90136.38;;;9.58;100.00
22649;BME280;11491;41.942;24.220;2023-05-09T02:32:42;90145.53;;;9.57;100.00
22649;BME280;11491;41.942;24.220;2023-05-09T02:35:10;90151.75;;;9.61;100.00
22649;BME280;11491;41.942;24.220;2023-05-09T02:37:40;90151.75;;;9.61;100.00
22649;BME280;11491;41.942;24.220;2023-05-09T02:40:08;90157.97;;;9.65;100.00
22649;BME280;11491;41.942;24.220;2023-05-09T02:42:35;90144.53;;;9.62;100.00
22649;BME280;11491;41.942;24.220;2023-05-09T02:45:02;90160.41;;;9.58;100.00
22649;BME280;11491;41.942;24.220;2023-05-09T02:47:29;90164.00;;;9.62;100.00
22649;BME280;11491;41.942;24.220;2023-05-09T02:49:56;90158.63;;;9.50;100.00
22649;BME280;11491;41.942;24.220;2023-05-09T02:52:23;90162.84;;;9.51;100.00
22649;BME280;11491;41.942;24.220;2023-05-09T02:54:51;90128.28;;;9.21;100.00
22649;BME280;11491;41.942;24.220;2023-05-09T02:57:18;90171.47;;;9.36;100.00
22649;BME280;11491;41.942;24.220;2023-05-09T02:59:45;90171.97;;;9.50;100.00
22649;BME280;11491;41.942;24.220;2023-05-09T03:02:12;90174.44;;;9.55;100.00
22649;BME280;11491;41.942;24.220;2023-05-09T03:04:38;90131.44;;;9.36;100.00
22649;BME280;11491;41.942;24.220;2023-05-09T03:07:06;90170.88;;;9.63;100.00
22649;BME280;11491;41.942;24.220;2023-05-09T03:09:33;90174.13;;;9.69;100.00
22649;BME280;11491;41.942;24.220;2023-05-09T03:12:01;90175.78;;;9.74;100.00
22649;BME280;11491;41.942;24.220;2023-05-09T03:14:28;90170.59;;;9.77;100.00
22649;BME280;11491;41.942;24.220;2023-05-09T03:16:55;90184.38;;;9.79;100.00
22649;BME280;11491;41.942;24.220;2023-05-09T03:19:22;90182.28;;;9.85;100.00
22649;BME280;11491;41.942;24.220;2023-05-09T03:21:49;90183.97;;;9.89;100.00
22649;BME280;11491;41.942;24.220;2023-05-09T03:24:16;90179.16;;;9.95;100.00
22649;BME280;11491;41.942;24.220;2023-05-09T03:26:43;90182.06;;;10.02;100.00
22649;BME280;11491;41.942;24.220;2023-05-09T03:29:11;90183.63;;;10.16;100.00
22649;BME280;11491;41.942;24.220;2023-05-09T03:31:37;90178.75;;;10.18;100.00
22649;BME280;11491;41.942;24.220;2023-05-09T03:34:04;90184.63;;;10.23;99.23
22649;BME280;11491;41.942;24.220;2023-05-09T03:36:31;90175.66;;;10.28;97.89
22649;BME280;11491;41.942;24.220;2023-05-09T03:38:58;90182.75;;;10.24;97.33
22649;BME280;11491;41.942;24.220;2023-05-09T03:41:24;90178.63;;;10.14;97.64
22649;BME280;11491;41.942;24.220;2023-05-09T03:43:51;90187.41;;;10.02;96.71
22649;BME280;11491;41.942;24.220;2023-05-09T03:46:19;90183.59;;;9.91;97.98
22649;BME280;11491;41.942;24.220;2023-05-09T03:48:46;90189.31;;;9.89;97.70
22649;BME280;11491;41.942;24.220;2023-05-09T03:51:13;90196.31;;;9.94;97.11
22649;BME280;11491;41.942;24.220;2023-05-09T03:53:39;90186.06;;;9.84;98.02
22649;BME280;11491;41.942;24.220;2023-05-09T03:56:06;90193.41;;;9.87;96.96
22649;BME280;11491;41.942;24.220;2023-05-09T03:58:33;90197.53;;;9.84;97.67
22649;BME280;11491;41.942;24.220;2023-05-09T04:01:00;90207.44;;;9.84;98.37
22649;BME280;11491;41.942;24.220;2023-05-09T04:03:28;90202.09;;;9.84;98.63
22649;BME280;11491;41.942;24.220;2023-05-09T04:05:55;90201.28;;;9.83;97.96
22649;BME280;11491;41.942;24.220;2023-05-09T04:08:22;90204.16;;;9.78;98.45
22649;BME280;11491;41.942;24.220;2023-05-09T04:10:49;90192.03;;;9.68;98.14
22649;BME280;11491;41.942;24.220;2023-05-09T04:13:16;90201.59;;;9.69;99.60
22649;BME280;11491;41.942;24.220;2023-05-09T04:15:43;90198.47;;;9.67;98.89
22649;BME280;11491;41.942;24.220;2023-05-09T04:18:10;90208.81;;;9.57;99.18
22649;BME280;11491;41.942;24.220;2023-05-09T04:20:38;90200.88;;;9.48;99.24
22649;BME280;11491;41.942;24.220;2023-05-09T04:23:05;90205.06;;;9.37;100.00
22649;BME280;11491;41.942;24.220;2023-05-09T04:25:31;90206.13;;;9.23;100.00
22649;BME280;11491;41.942;24.220;2023-05-09T04:27:58;90213.03;;;9.24;100.00
22649;BME280;11491;41.942;24.220;2023-05-09T04:30:25;90211.72;;;9.31;100.00
22649;BME280;11491;41.942;24.220;2023-05-09T04:32:52;90204.38;;;9.27;100.00
22649;BME280;11491;41.942;24.220;2023-05-09T04:35:19;90209.19;;;9.46;100.00
22649;BME280;11491;41.942;24.220;2023-05-09T04:37:48;90208.72;;;9.65;100.00
22649;BME280;11491;41.942;24.220;2023-05-09T04:40:14;90217.19;;;9.80;100.00
22649;BME280;11491;41.942;24.220;2023-05-09T04:42:41;90215.00;;;9.82;98.95
22649;BME280;11491;41.942;24.220;2023-05-09T04:45:08;90206.38;;;9.76;96.64
22649;BME280;11491;41.942;24.220;2023-05-09T04:47:36;90220.09;;;9.75;98.44
22649;BME280;11491;41.942;24.220;2023-05-09T04:50:05;90217.53;;;9.78;98.28
22649;BME280;11491;41.942;24.220;2023-05-09T04:52:32;90212.78;;;9.84;97.07
22649;BME280;11491;41.942;24.220;2023-05-09T04:55:00;90224.56;;;9.95;96.78
22649;BME280;11491;41.942;24.220;2023-05-09T04:57:29;90209.66;;;9.82;97.51
22649;BME280;11491;41.942;24.220;2023-05-09T04:59:56;90108.78;;;9.30;96.42
22649;BME280;11491;41.942;24.220;2023-05-09T05:02:24;90185.16;;;9.80;95.56
22649;BME280;11491;41.942;24.220;2023-05-09T05:04:51;90166.44;;;9.67;95.47
22649;BME280;11491;41.942;24.220;2023-05-09T05:07:18;90164.00;;;9.62;95.63
22649;BME280;11491;41.942;24.220;2023-05-09T05:09:45;90167.34;;;9.72;94.66
22649;BME280;11491;41.942;24.220;2023-05-09T05:12:16;90145.63;;;9.61;95.69
22649;BME280;11491;41.942;24.220;2023-05-09T05:14:42;90079.81;;;9.07;96.71
22649;BME280;11491;41.942;24.220;2023-05-09T05:17:09;90206.66;;;9.96;97.38
22649;BME280;11491;41.942;24.220;2023-05-09T05:19:36;90146.81;;;9.51;98.06
22649;BME280;11491;41.942;24.220;2023-05-09T05:22:03;90210.53;;;9.86;96.06
22649;BME280;11491;41.942;24.220;2023-05-09T05:24:29;90198.25;;;9.60;97.96
22649;BME280;11491;41.942;24.220;2023-05-09T05:26:56;90221.69;;;9.55;98.76
22649;BME280;11491;41.942;24.220;2023-05-09T05:29:24;90221.56;;;9.51;100.00
22649;BME280;11491;41.942;24.220;2023-05-09T05:31:51;90213.66;;;9.42;100.00
22649;BME280;11491;41.942;24.220;2023-05-09T05:34:18;90208.66;;;9.53;100.00
22649;BME280;11491;41.942;24.220;2023-05-09T05:36:44;90211.53;;;9.48;99.14
22649;BME280;11491;41.942;24.220;2023-05-09T05:39:12;90216.69;;;9.53;100.00
22649;BME280;11491;41.942;24.220;2023-05-09T05:41:38;90200.75;;;9.44;99.96
22649;BME280;11491;41.942;24.220;2023-05-09T05:44:05;90175.06;;;9.40;99.86
22649;BME280;11491;41.942;24.220;2023-05-09T05:46:33;90166.34;;;9.31;99.81
22649;BME280;11491;41.942;24.220;2023-05-09T05:49:00;90195.53;;;9.48;100.00
22649;BME280;11491;41.942;24.220;2023-05-09T05:51:27;90164.59;;;9.35;98.89
22649;BME280;11491;41.942;24.220;2023-05-09T05:53:54;90203.09;;;9.46;97.53
22649;BME280;11491;41.942;24.220;2023-05-09T05:56:21;90170.94;;;9.42;98.49
22649;BME280;11491;41.942;24.220;2023-05-09T05:58:48;90116.25;;;9.03;97.35
22649;BME280;11491;41.942;24.220;2023-05-09T06:01:15;90108.84;;;8.88;95.90
22649;BME280;11491;41.942;24.220;2023-05-09T06:03:47;90209.13;;;9.55;96.93
22649;BME280;11491;41.942;24.220;2023-05-09T06:06:19;90228.41;;;9.73;98.55
22649;BME280;11491;41.942;24.220;2023-05-09T06:08:46;90226.31;;;9.79;96.88
22649;BME280;11491;41.942;24.220;2023-05-09T06:11:14;90228.13;;;9.87;96.87
22649;BME280;11491;41.942;24.220;2023-05-09T06:13:41;90229.34;;;9.89;97.39
22649;BME280;11491;41.942;24.220;2023-05-09T06:16:08;90245.84;;;9.91;98.37
22649;BME280;11491;41.942;24.220;2023-05-09T06:18:35;90214.78;;;9.87;96.32
22649;BME280;11491;41.942;24.220;2023-05-09T06:21:06;90220.00;;;9.96;95.34
22649;BME280;11491;41.942;24.220;2023-05-09T06:23:32;90216.75;;;9.78;96.43
22649;BME280;11491;41.942;24.220;2023-05-09T06:26:01;90163.59;;;9.39;95.86
22649;BME280;11491;41.942;24.220;2023-05-09T06:28:28;90211.88;;;9.80;96.74
22649;BME280;11491;41.942;24.220;2023-05-09T06:30:55;90229.25;;;9.98;96.79
22649;BME280;11491;41.942;24.220;2023-05-09T06:33:21;90187.31;;;9.53;96.43
22649;BME280;11491;41.942;24.220;2023-05-09T06:35:48;90233.25;;;9.92;95.60
22649;BME280;11491;41.942;24.220;2023-05-09T06:38:16;90180.31;;;9.61;97.44
22649;BME280;11491;41.942;24.220;2023-05-09T06:40:43;90179.06;;;9.46;97.10
22649;BME280;11491;41.942;24.220;2023-05-09T06:43:10;90187.41;;;9.44;97.14
22649;BME280;11491;41.942;24.220;2023-05-09T06:45:36;90190.56;;;9.25;99.46
22649;BME280;11491;41.942;24.220;2023-05-09T06:48:04;90249.16;;;9.55;99.44
22649;BME280;11491;41.942;24.220;2023-05-09T06:50:31;90226.94;;;9.30;100.00
22649;BME280;11491;41.942;24.220;2023-05-09T06:52:57;90252.56;;;9.43;100.00
22649;BME280;11491;41.942;24.220;2023-05-09T06:55:25;90253.53;;;9.39;100.00
22649;BME280;11491;41.942;24.220;2023-05-09T06:57:52;90241.97;;;9.35;100.00
22649;BME280;11491;41.942;24.220;2023-05-09T07:00:20;90220.31;;;9.15;100.00
22649;BME280;11491;41.942;24.220;2023-05-09T07:02:47;90233.81;;;9.31;100.00
22649;BME280;11491;41.942;24.220;2023-05-09T07:05:14;90238.38;;;9.31;100.00
22649;BME280;11491;41.942;24.220;2023-05-09T07:07:40;90234.22;;;9.21;100.00
22649;BME280;11491;41.942;24.220;2023-05-09T07:10:08;90232.47;;;9.04;100.00
22649;BME280;11491;41.942;24.220;2023-05-09T07:12:36;90239.63;;;8.91;100.00
22649;BME280;11491;41.942;24.220;2023-05-09T07:15:03;90241.41;;;8.87;100.00
22649;BME280;11491;41.942;24.220;2023-05-09T07:17:30;90245.31;;;8.90;100.00
22649;BME280;11491;41.942;24.220;2023-05-09T07:19:57;90241.63;;;8.94;100.00
22649;BME280;11491;41.942;24.220;2023-05-09T07:22:24;90246.34;;;8.97;100.00
22649;BME280;11491;41.942;24.220;2023-05-09T07:24:51;90247.38;;;9.05;100.00
22649;BME280;11491;41.942;24.220;2023-05-09T07:27:17;90242.72;;;9.02;100.00
22649;BME280;11491;41.942;24.220;2023-05-09T07:29:45;90254.41;;;9.10;100.00
22649;BME280;11491;41.942;24.220;2023-05-09T07:32:13;90248.28;;;9.09;100.00
22649;BME280;11491;41.942;24.220;2023-05-09T07:34:40;90247.44;;;9.17;100.00
22649;BME280;11491;41.942;24.220;2023-05-09T07:37:07;90243.47;;;9.02;100.00
22649;BME280;11491;41.942;24.220;2023-05-09T07:39:34;90253.13;;;8.95;100.00
22649;BME280;11491;41.942;24.220;2023-05-09T07:42:01;90258.19;;;8.88;100.00
22649;BME280;11491;41.942;24.220;2023-05-09T07:44:28;90249.97;;;8.93;100.00
22649;BME280;11491;41.942;24.220;2023-05-09T07:46:56;90214.06;;;8.69;100.00
22649;BME280;11491;41.942;24.220;2023-05-09T07:49:25;90231.34;;;8.84;100.00
22649;BME280;11491;41.942;24.220;2023-05-09T07:51:52;90245.81;;;9.04;100.00
22649;BME280;11491;41.942;24.220;2023-05-09T07:54:18;90247.91;;;9.19;100.00
22649;BME280;11491;41.942;24.220;2023-05-09T07:56:45;90252.44;;;9.40;100.00
22649;BME280;11491;41.942;24.220;2023-05-09T07:59:12;90247.38;;;9.47;100.00
22649;BME280;11491;41.942;24.220;2023-05-09T08:01:39;90264.16;;;9.47;100.00
22649;BME280;11491;41.942;24.220;2023-05-09T08:04:07;90195.66;;;9.18;100.00
22649;BME280;11491;41.942;24.220;2023-05-09T08:06:34;90248.09;;;9.68;100.00
22649;BME280;11491;41.942;24.220;2023-05-09T08:09:01;90164.44;;;8.98;100.00
22649;BME280;11491;41.942;24.220;2023-05-09T08:11:27;90180.25;;;9.03;100.00
22649;BME280;11491;41.942;24.220;2023-05-09T08:13:54;90209.38;;;9.08;100.00
22649;BME280;11491;41.942;24.220;2023-05-09T08:16:21;90195.06;;;8.92;100.00
22649;BME280;11491;41.942;24.220;2023-05-09T08:18:48;90208.03;;;9.02;100.00
22649;BME280;11491;41.942;24.220;2023-05-09T08:21:16;90168.63;;;8.66;100.00
22649;BME280;11491;41.942;24.220;2023-05-09T08:23:43;90212.00;;;8.96;100.00
22649;BME280;11491;41.942;24.220;2023-05-09T08:26:10;90262.66;;;9.38;100.00
22649;BME280;11491;41.942;24.220;2023-05-09T08:28:37;90254.66;;;9.38;100.00
22649;BME280;11491;41.942;24.220;2023-05-09T08:31:04;90241.50;;;9.33;100.00
22649;BME280;11491;41.942;24.220;2023-05-09T08:33:30;90185.53;;;8.91;100.00
22649;BME280;11491;41.942;24.220;2023-05-09T08:35:57;90249.69;;;9.48;100.00
22649;BME280;11491;41.942;24.220;2023-05-09T08:38:26;90240.84;;;9.57;100.00
22649;BME280;11491;41.942;24.220;2023-05-09T08:40:53;90249.16;;;9.55;100.00
22649;BME280;11491;41.942;24.220;2023-05-09T08:43:27;90221.88;;;9.16;100.00
22649;BME280;11491;41.942;24.220;2023-05-09T08:45:57;90246.19;;;9.36;100.00
22649;BME280;11491;41.942;24.220;2023-05-09T08:48:24;90220.72;;;9.05;100.00
22649;BME280;11491;41.942;24.220;2023-05-09T08:50:52;90240.47;;;9.25;100.00
22649;BME280;11491;41.942;24.220;2023-05-09T08:53:20;90246.06;;;9.11;100.00
22649;BME280;11491;41.942;24.220;2023-05-09T08:55:49;90238.91;;;9.03;100.00
22649;BME280;11491;41.942;24.220;2023-05-09T08:58:17;90243.47;;;9.02;100.00
22649;BME280;11491;41.942;24.220;2023-05-09T09:00:46;90244.25;;;9.03;100.00
22649;BME280;11491;41.942;24.220;2023-05-09T09:03:16;90235.78;;;9.01;100.00
22649;BME280;11491;41.942;24.220;2023-05-09T09:05:43;90241.13;;;9.01;100.00
22649;BME280;11491;41.942;24.220;2023-05-09T09:08:12;90234.25;;;9.00;100.00
22649;BME280;11491;41.942;24.220;2023-05-09T09:10:40;90241.41;;;9.08;100.00
22649;BME280;11491;41.942;24.220;2023-05-09T09:13:09;90233.19;;;9.13;100.00
22649;BME280;11491;41.942;24.220;2023-05-09T09:15:37;90235.00;;;9.21;100.00
22649;BME280;11491;41.942;24.220;2023-05-09T09:18:08;90244.66;;;9.35;100.00
22649;BME280;11491;41.942;24.220;2023-05-09T09:20:36;90234.81;;;9.26;100.00
22649;BME280;11491;41.942;24.220;2023-05-09T09:23:07;90241.22;;;9.46;100.00
22649;BME280;11491;41.942;24.220;2023-05-09T09:25:35;90242.13;;;9.51;100.00
22649;BME280;11491;41.942;24.220;2023-05-09T09:28:02;90230.53;;;9.67;100.00
22649;BME280;11491;41.942;24.220;2023-05-09T09:30:30;90239.47;;;9.84;100.00
22649;BME280;11491;41.942;24.220;2023-05-09T09:32:58;90237.22;;;9.86;100.00
22649;BME280;11491;41.942;24.220;2023-05-09T09:35:24;90246.16;;;9.90;99.02
22649;BME280;11491;41.942;24.220;2023-05-09T09:37:55;90243.72;;;9.97;100.00
22649;BME280;11491;41.942;24.220;2023-05-09T09:40:24;90232.38;;;10.00;100.00
22649;BME280;11491;41.942;24.220;2023-05-09T09:42:51;90250.31;;;10.12;99.86
22649;BME280;11491;41.942;24.220;2023-05-09T09:45:19;90239.06;;;10.06;98.09
22649;BME280;11491;41.942;24.220;2023-05-09T09:47:47;90245.75;;;10.12;96.75
22649;BME280;11491;41.942;24.220;2023-05-09T09:50:16;90246.88;;;10.11;98.36
22649;BME280;11491;41.942;24.220;2023-05-09T09:52:48;90241.88;;;10.22;96.15
22649;BME280;11491;41.942;24.220;2023-05-09T09:55:16;90245.75;;;10.12;96.35
22649;BME280;11491;41.942;24.220;2023-05-09T09:57:43;90247.13;;;10.31;98.34
22649;BME280;11491;41.942;24.220;2023-05-09T10:00:11;90238.91;;;10.36;97.39
22649;BME280;11491;41.942;24.220;2023-05-09T10:02:51;90251.84;;;10.59;96.74
22649;BME280;11491;41.942;24.220;2023-05-09T10:05:22;90245.59;;;10.54;95.14
22649;BME280;11491;41.942;24.220;2023-05-09T10:07:50;90253.06;;;10.49;95.22
22649;BME280;11491;41.942;24.220;2023-05-09T10:10:18;90252.69;;;10.38;94.84
22649;BME280;11491;41.942;24.220;2023-05-09T10:12:46;90249.53;;;10.11;96.68
22649;BME280;11491;41.942;24.220;2023-05-09T10:15:15;90251.28;;;9.95;96.49
22649;BME280;11491;41.942;24.220;2023-05-09T10:17:44;90248.16;;;9.93;98.47
22649;BME280;11491;41.942;24.220;2023-05-09T10:20:12;90239.28;;;10.01;100.00
22649;BME280;11491;41.942;24.220;2023-05-09T10:22:40;90245.16;;;9.95;100.00
22649;BME280;11491;41.942;24.220;2023-05-09T10:25:10;90249.28;;;9.92;98.46
22649;BME280;11491;41.942;24.220;2023-05-09T10:27:40;90251.75;;;9.97;99.53
22649;BME280;11491;41.942;24.220;2023-05-09T10:30:16;90241.94;;;9.89;99.46
22649;BME280;11491;41.942;24.220;2023-05-09T10:32:47;90252.25;;;9.78;97.41
22649;BME280;11491;41.942;24.220;2023-05-09T10:35:17;90253.22;;;9.74;98.50
22649;BME280;11491;41.942;24.220;2023-05-09T10:37:44;90247.63;;;9.54;100.00
22649;BME280;11491;41.942;24.220;2023-05-09T10:40:11;90248.75;;;9.65;100.00
22649;BME280;11491;41.942;24.220;2023-05-09T10:42:40;90244.31;;;9.69;100.00
22649;BME280;11491;41.942;24.220;2023-05-09T10:45:08;90255.88;;;9.74;100.00
22649;BME280;11491;41.942;24.220;2023-05-09T10:47:37;90246.25;;;9.81;100.00
22649;BME280;11491;41.942;24.220;2023-05-09T10:50:04;90239.66;;;9.79;100.00
22649;BME280;11491;41.942;24.220;2023-05-09T10:52:33;90246.38;;;9.85;100.00
22649;BME280;11491;41.942;24.220;2023-05-09T10:55:00;90248.34;;;9.76;99.45
22649;BME280;11491;41.942;24.220;2023-05-09T10:57:29;90241.19;;;9.67;100.00
22649;BME280;11491;41.942;24.220;2023-05-09T10:59:57;90247.81;;;9.82;100.00
22649;BME280;11491;41.942;24.220;2023-05-09T11:02:24;90241.94;;;9.89;100.00
22649;BME280;11491;41.942;24.220;2023-05-09T11:05:15;90238.84;;;9.99;100.00
22649;BME280;11491;41.942;24.220;2023-05-09T11:07:43;90245.28;;;9.98;99.98
22649;BME280;11491;41.942;24.220;2023-05-09T11:10:14;90240.59;;;9.95;100.00
22649;BME280;11491;41.942;24.220;2023-05-09T11:12:55;90214.97;;;9.69;98.79
22649;BME280;11491;41.942;24.220;2023-05-09T11:15:22;90234.34;;;9.91;99.37
22649;BME280;11491;41.942;24.220;2023-05-09T11:17:50;90249.97;;;10.01;98.89
22649;BME280;11491;41.942;24.220;2023-05-09T11:20:32;90248.16;;;9.93;99.76
22649;BME280;11491;41.942;24.220;2023-05-09T11:23:02;90255.72;;;9.91;99.35
22649;BME280;11491;41.942;24.220;2023-05-09T11:25:29;90250.31;;;9.66;100.00
22649;BME280;11491;41.942;24.220;2023-05-09T11:27:58;90254.66;;;9.71;100.00
22649;BME280;11491;41.942;24.220;2023-05-09T11:30:34;90248.34;;;9.76;100.00
22649;BME280;11491;41.942;24.220;2023-05-09T11:33:03;90252.59;;;9.56;100.00
22649;BME280;11491;41.942;24.220;2023-05-09T11:35:31;90256.47;;;9.46;100.00
22649;BME280;11491;41.942;24.220;2023-05-09T11:38:01;90223.03;;;9.27;100.00
22649;BME280;11491;41.942;24.220;2023-05-09T11:40:28;90250.50;;;9.49;100.00
22649;BME280;11491;41.942;24.220;2023-05-09T11:42:57;90256.59;;;9.49;100.00
22649;BME280;11491;41.942;24.220;2023-05-09T11:45:25;90251.78;;;9.43;100.00
22649;BME280;11491;41.942;24.220;2023-05-09T11:47:52;90237.09;;;9.37;100.00
22649;BME280;11491;41.942;24.220;2023-05-09T11:50:19;90246.44;;;9.43;100.00
22649;BME280;11491;41.942;24.220;2023-05-09T11:52:47;90241.38;;;9.50;100.00
22649;BME280;11491;41.942;24.220;2023-05-09T11:55:17;90237.78;;;9.46;100.00
22649;BME280;11491;41.942;24.220;2023-05-09T11:57:45;90231.81;;;9.49;100.00
22649;BME280;11491;41.942;24.220;2023-05-09T12:00:15;90251.13;;;9.46;100.00
22649;BME280;11491;41.942;24.220;2023-05-09T12:02:43;90248.44;;;9.46;100.00
22649;BME280;11491;41.942;24.220;2023-05-09T12:05:11;90251.91;;;9.46;100.00
22649;BME280;11491;41.942;24.220;2023-05-09T12:07:38;90247.78;;;9.37;100.00
22649;BME280;11491;41.942;24.220;2023-05-09T12:10:06;90248.25;;;9.51;100.00
22649;BME280;11491;41.942;24.220;2023-05-09T12:12:36;90246.69;;;9.50;100.00
22649;BME280;11491;41.942;24.220;2023-05-09T12:15:08;90235.88;;;9.46;100.00
22649;BME280;11491;41.942;24.220;2023-05-09T12:17:35;90215.97;;;9.44;100.00
22649;BME280;11491;41.942;24.220;2023-05-09T12:20:02;90226.38;;;9.58;100.00
22649;BME280;11491;41.942;24.220;2023-05-09T12:22:30;90244.84;;;9.63;100.00
22649;BME280;11491;41.942;24.220;2023-05-09T12:24:59;90235.38;;;9.53;100.00
22649;BME280;11491;41.942;24.220;2023-05-09T12:27:27;90232.22;;;9.51;100.00
22649;BME280;11491;41.942;24.220;2023-05-09T12:29:55;90229.25;;;9.53;100.00
22649;BME280;11491;41.942;24.220;2023-05-09T12:32:22;90220.94;;;9.33;100.00
22649;BME280;11491;41.942;24.220;2023-05-09T12:34:49;90189.59;;;9.09;100.00
22649;BME280;11491;41.942;24.220;2023-05-09T12:37:18;90173.41;;;9.14;100.00
22649;BME280;11491;41.942;24.220;2023-05-09T12:39:59;90178.56;;;9.19;100.00
22649;BME280;11491;41.942;24.220;2023-05-09T12:42:26;90156.25;;;9.03;100.00
22649;BME280;11491;41.942;24.220;2023-05-09T12:44:55;90219.88;;;9.46;100.00
22649;BME280;11491;41.942;24.220;2023-05-09T12:47:25;90167.50;;;9.09;100.00
22649;BME280;11491;41.942;24.220;2023-05-09T12:49:56;90184.56;;;8.95;100.00
22649;BME280;11491;41.942;24.220;2023-05-09T12:52:23;90220.16;;;9.33;100.00
22649;BME280;11491;41.942;24.220;2023-05-09T12:54:51;90148.66;;;8.93;100.00